createdAt,value
2018-10-09T00:03:28.817Z,71.17
2018-10-09T00:08:32.096Z,71.92
2018-10-09T00:13:35.377Z,71.09
2018-10-09T00:18:38.715Z,71.84
2018-10-09T00:23:42.003Z,71.76
2018-10-09T00:28:45.301Z,71.26
2018-10-09T00:33:48.608Z,70.74
2018-10-09T00:38:51.940Z,70.52
2018-10-09T00:43:55.239Z,70.61
2018-10-09T00:48:58.564Z,71.07
2018-10-09T00:54:01.892Z,71.41
2018-10-09T00:59:05.240Z,72.21
2018-10-09T01:04:08.520Z,74.25
2018-10-09T01:09:11.854Z,74.16
2018-10-09T01:14:15.152Z,74.15
2018-10-09T01:19:18.449Z,73.32
2018-10-09T01:24:21.780Z,72.64
2018-10-09T01:29:25.129Z,71.87
2018-10-09T01:34:28.445Z,72.15
2018-10-09T01:39:31.748Z,71.88
2018-10-09T01:44:35.060Z,72.12
2018-10-09T01:49:38.326Z,71.56
2018-10-09T01:54:41.632Z,73.25
2018-10-09T01:59:44.939Z,74.31
2018-10-09T02:04:48.247Z,74.77
2018-10-09T02:09:51.593Z,75.01
2018-10-09T02:14:54.872Z,75.10
2018-10-09T02:19:58.184Z,74.83
2018-10-09T02:25:01.495Z,74.69
2018-10-09T02:30:06.907Z,74.58
2018-10-09T02:35:10.195Z,73.64
2018-10-09T02:40:13.487Z,72.91
2018-10-09T02:45:16.816Z,72.68
2018-10-09T02:50:20.103Z,72.34
2018-10-09T02:55:23.371Z,72.54
2018-10-09T03:00:26.655Z,72.61
2018-10-09T03:05:29.963Z,72.03
2018-10-09T03:10:33.306Z,71.69
2018-10-09T03:15:36.611Z,72.02
2018-10-09T03:20:39.979Z,71.75
2018-10-09T03:25:43.259Z,71.49
2018-10-09T03:30:46.595Z,71.46
2018-10-09T03:35:49.915Z,71.42
2018-10-09T03:40:53.247Z,70.99
2018-10-09T03:45:56.559Z,71.18
2018-10-09T03:50:59.886Z,71.04
2018-10-09T03:56:03.232Z,71.03
2018-10-09T04:01:06.546Z,71.35
2018-10-09T04:06:09.820Z,71.49
2018-10-09T04:11:13.080Z,70.82
2018-10-09T04:16:16.352Z,70.78
2018-10-09T04:21:19.660Z,70.93
2018-10-09T04:26:22.949Z,71.49
2018-10-09T04:31:26.240Z,71.69
2018-10-09T04:36:29.509Z,72.37
2018-10-09T04:41:32.855Z,72.91
2018-10-09T04:46:36.167Z,73.15
2018-10-09T04:51:39.495Z,72.46
2018-10-09T04:56:42.836Z,72.52
2018-10-09T05:01:46.178Z,73.23
2018-10-09T05:06:49.503Z,73.37
2018-10-09T05:11:52.828Z,73.03
2018-10-09T05:16:56.218Z,73.14
2018-10-09T05:21:59.542Z,73.00
2018-10-09T05:27:02.836Z,73.06
2018-10-09T05:32:06.172Z,73.11
2018-10-09T05:37:09.516Z,73.25
2018-10-09T05:42:12.839Z,73.01
2018-10-09T05:47:16.140Z,73.00
2018-10-09T05:52:19.464Z,72.90
2018-10-09T05:57:22.760Z,73.47
2018-10-09T06:02:26.089Z,73.63
2018-10-09T06:07:30.374Z,73.87
2018-10-09T06:12:33.900Z,73.60
2018-10-09T06:17:37.231Z,73.24
2018-10-09T06:22:40.556Z,72.71
2018-10-09T06:27:43.852Z,72.66
2018-10-09T06:32:47.167Z,72.78
2018-10-09T06:37:50.605Z,73.09
2018-10-09T06:42:54.030Z,73.60
2018-10-09T06:47:57.232Z,73.98
2018-10-09T06:53:00.564Z,74.03
2018-10-09T06:58:03.907Z,74.13
2018-10-09T07:03:07.220Z,74.55
2018-10-09T07:08:10.525Z,74.71
2018-10-09T07:13:13.873Z,75.10
2018-10-09T07:18:17.221Z,75.37
2018-10-09T07:23:20.552Z,75.81
2018-10-09T07:28:23.952Z,76.60
2018-10-09T07:33:27.265Z,76.30
2018-10-09T07:38:30.629Z,76.55
2018-10-09T07:43:34.028Z,76.08
2018-10-09T07:48:37.461Z,76.80
2018-10-09T07:53:40.774Z,76.14
2018-10-09T07:58:44.151Z,76.21
2018-10-09T08:03:47.517Z,76.04
2018-10-09T08:08:50.860Z,75.84
2018-10-09T08:13:54.161Z,75.88
2018-10-09T08:18:57.468Z,75.80
2018-10-09T08:24:00.758Z,75.37
2018-10-09T08:29:04.113Z,75.28
2018-10-09T08:34:07.608Z,76.23
2018-10-09T08:39:10.895Z,75.60
2018-10-09T08:44:14.265Z,75.49
2018-10-09T08:49:17.857Z,75.52
2018-10-09T08:54:21.176Z,74.73
2018-10-09T08:59:24.590Z,74.90
2018-10-09T09:04:27.954Z,74.94
2018-10-09T09:09:31.337Z,74.16
2018-10-09T09:14:34.676Z,74.46
2018-10-09T09:19:38.037Z,74.28
2018-10-09T09:24:41.363Z,74.11
2018-10-09T09:29:44.668Z,74.46
2018-10-09T09:34:47.955Z,74.07
2018-10-09T09:39:51.269Z,73.20
2018-10-09T09:44:54.579Z,72.95
2018-10-09T09:49:57.862Z,72.79
2018-10-09T09:55:01.169Z,72.43
2018-10-09T10:00:04.613Z,71.78
2018-10-09T10:05:07.951Z,71.54
2018-10-09T10:10:11.257Z,70.30
2018-10-09T10:15:14.577Z,69.68
2018-10-09T10:20:17.946Z,69.28
2018-10-09T10:25:21.334Z,69.17
2018-10-09T10:30:24.626Z,68.96
2018-10-09T10:35:27.952Z,68.62
2018-10-09T10:40:31.276Z,67.66
2018-10-09T10:45:34.658Z,67.23
2018-10-09T10:50:38.029Z,66.62
2018-10-09T10:55:41.343Z,66.31
2018-10-09T11:00:44.688Z,65.84
2018-10-09T11:05:48.008Z,65.25
2018-10-09T11:10:51.516Z,62.60
2018-10-09T11:15:54.837Z,53.33
2018-10-09T11:20:58.211Z,39.04
2018-10-09T11:26:01.524Z,31.49
2018-10-09T11:31:04.840Z,29.83
2018-10-09T11:36:08.161Z,28.53
2018-10-09T11:41:11.494Z,27.13
2018-10-09T11:46:14.809Z,25.36
2018-10-09T11:51:18.132Z,24.67
2018-10-09T11:56:21.448Z,22.99
2018-10-09T12:01:24.760Z,23.17
2018-10-09T12:06:28.073Z,23.99
2018-10-09T12:11:31.380Z,24.50
2018-10-09T12:16:34.708Z,24.61
2018-10-09T12:21:38.109Z,24.79
2018-10-09T12:26:41.340Z,23.16
2018-10-09T12:31:44.646Z,22.79
2018-10-09T12:36:48.030Z,24.32
2018-10-09T12:41:51.342Z,27.22
2018-10-09T12:46:54.652Z,27.58
2018-10-09T12:51:57.961Z,28.58
2018-10-09T12:57:01.294Z,27.23
2018-10-09T13:02:04.612Z,28.89
2018-10-09T13:07:07.968Z,29.75
2018-10-09T13:12:11.329Z,29.56
2018-10-09T13:17:14.712Z,31.27
2018-10-09T13:22:18.292Z,34.70
2018-10-09T13:27:21.349Z,37.99
2018-10-09T13:32:24.644Z,39.26
2018-10-09T13:37:27.972Z,39.39
2018-10-09T13:42:31.301Z,39.92
2018-10-09T13:47:34.775Z,41.93
2018-10-09T13:52:38.090Z,43.50
2018-10-09T13:57:41.420Z,45.04
2018-10-09T14:02:44.738Z,45.59
2018-10-09T14:07:48.101Z,46.22
2018-10-09T14:12:51.421Z,47.16
2018-10-09T14:17:54.773Z,47.94
2018-10-09T14:22:58.135Z,48.81
2018-10-09T14:28:01.397Z,49.06
2018-10-09T14:33:04.720Z,49.64
2018-10-09T14:38:08.029Z,50.40
2018-10-09T14:43:11.653Z,50.65
2018-10-09T14:48:14.989Z,50.91
2018-10-09T14:53:18.534Z,51.44
2018-10-09T14:58:21.873Z,51.84
2018-10-09T15:03:25.410Z,52.73
2018-10-09T15:08:28.800Z,52.95
2018-10-09T15:13:32.815Z,53.79
2018-10-09T15:18:36.459Z,54.27
2018-10-09T15:23:39.833Z,54.39
2018-10-09T15:28:43.168Z,54.78
2018-10-09T15:33:46.827Z,55.32
2018-10-09T15:38:50.135Z,56.00
2018-10-09T15:43:53.596Z,56.78
2018-10-09T15:48:57.168Z,57.04
2018-10-09T15:54:00.469Z,57.35
2018-10-09T15:59:03.760Z,58.35
2018-10-09T16:04:07.391Z,58.82
2018-10-09T16:09:11.446Z,59.33
2018-10-09T16:14:14.758Z,60.11
2018-10-09T16:19:18.958Z,61.32
2018-10-09T16:24:22.235Z,61.94
2018-10-09T16:29:25.809Z,62.87
2018-10-09T16:34:29.131Z,63.11
2018-10-09T16:39:32.431Z,63.58
2018-10-09T16:44:35.760Z,64.04
2018-10-09T16:49:39.440Z,64.88
2018-10-09T16:54:42.765Z,64.48
2018-10-09T16:59:46.055Z,65.54
2018-10-09T17:04:49.328Z,65.35
2018-10-09T17:09:52.632Z,65.64
2018-10-09T17:14:55.904Z,66.64
2018-10-09T17:19:59.300Z,66.63
2018-10-09T17:25:02.729Z,67.10
2018-10-09T17:30:07.095Z,66.75
2018-10-09T17:35:10.419Z,67.14
2018-10-09T17:40:13.697Z,66.69
2018-10-09T17:45:17.037Z,66.95
2018-10-09T17:50:20.356Z,66.78
2018-10-09T17:55:23.640Z,66.71
2018-10-09T18:00:27.323Z,67.04
2018-10-09T18:05:30.677Z,66.75
2018-10-09T18:10:33.969Z,66.43
2018-10-09T18:15:37.248Z,66.13
2018-10-09T18:20:40.588Z,66.24
2018-10-09T18:25:43.889Z,66.62
2018-10-09T18:30:47.183Z,66.56
2018-10-09T18:35:50.472Z,67.03
2018-10-09T18:40:53.934Z,67.17
2018-10-09T18:45:57.118Z,67.13
2018-10-09T18:51:00.423Z,66.97
2018-10-09T18:56:03.730Z,66.53
2018-10-09T19:01:07.117Z,66.77
2018-10-09T19:06:10.418Z,66.87
2018-10-09T19:11:13.728Z,67.45
2018-10-09T19:16:17.128Z,67.15
2018-10-09T19:21:20.418Z,67.05
2018-10-09T19:26:23.801Z,66.62
2018-10-09T19:31:27.100Z,66.52
2018-10-09T19:36:30.571Z,66.81
2018-10-09T19:41:34.034Z,66.26
2018-10-09T19:46:37.996Z,66.71
